sensor_id;sensor_type;location;lat;lon;timestamp;P1;durP1;ratioP1;P2;durP2;ratioP2
7179;SDS011;3631;42.152;24.756;2023-04-01T00:00:42;9.87;;;7.57;;
7179;SDS011;3631;42.152;24.756;2023-04-01T00:03:39;8.10;;;7.30;;
7179;SDS011;3631;42.152;24.756;2023-04-01T00:06:23;7.00;;;6.40;;
7179;SDS011;3631;42.152;24.756;2023-04-01T00:08:58;8.53;;;7.13;;
7179;SDS011;3631;42.152;24.756;2023-04-01T00:11:43;8.97;;;6.80;;
7179;SDS011;3631;42.152;24.756;2023-04-01T00:14:43;7.43;;;6.73;;
7179;SDS011;3631;42.152;24.756;2023-04-01T00:17:13;8.20;;;7.30;;
7179;SDS011;3631;42.152;24.756;2023-04-01T00:19:45;8.70;;;7.20;;
7179;SDS011;3631;42.152;24.756;2023-04-01T00:22:13;8.37;;;6.13;;
7179;SDS011;3631;42.152;24.756;2023-04-01T00:24:41;14.40;;;7.27;;
7179;SDS011;3631;42.152;24.756;2023-04-01T00:27:22;8.97;;;7.33;;
7179;SDS011;3631;42.152;24.756;2023-04-01T00:30:31;8.13;;;6.93;;
7179;SDS011;3631;42.152;24.756;2023-04-01T00:33:22;12.57;;;6.83;;
7179;SDS011;3631;42.152;24.756;2023-04-01T00:36:27;11.60;;;6.77;;
7179;SDS011;3631;42.152;24.756;2023-04-01T00:39:37;11.40;;;7.27;;
7179;SDS011;3631;42.152;24.756;2023-04-01T00:42:34;12.23;;;8.10;;
7179;SDS011;3631;42.152;24.756;2023-04-01T00:45:34;10.03;;;8.67;;
7179;SDS011;3631;42.152;24.756;2023-04-01T00:48:21;13.43;;;9.30;;
7179;SDS011;3631;42.152;24.756;2023-04-01T00:54:24;15.73;;;9.97;;
7179;SDS011;3631;42.152;24.756;2023-04-01T00:57:17;16.73;;;10.43;;
7179;SDS011;3631;42.152;24.756;2023-04-01T01:00:28;15.67;;;10.30;;
7179;SDS011;3631;42.152;24.756;2023-04-01T01:03:39;10.80;;;9.57;;
7179;SDS011;3631;42.152;24.756;2023-04-01T01:06:32;15.37;;;10.27;;
7179;SDS011;3631;42.152;24.756;2023-04-01T01:09:41;14.30;;;10.20;;
7179;SDS011;3631;42.152;24.756;2023-04-01T01:12:43;15.97;;;9.23;;
7179;SDS011;3631;42.152;24.756;2023-04-01T01:15:46;11.10;;;9.27;;
7179;SDS011;3631;42.152;24.756;2023-04-01T01:18:45;10.03;;;8.00;;
7179;SDS011;3631;42.152;24.756;2023-04-01T01:25:21;17.53;;;9.67;;
7179;SDS011;3631;42.152;24.756;2023-04-01T01:28:55;14.50;;;9.13;;
7179;SDS011;3631;42.152;24.756;2023-04-01T01:35:46;14.00;;;9.67;;
7179;SDS011;3631;42.152;24.756;2023-04-01T01:38:52;11.03;;;9.77;;
7179;SDS011;3631;42.152;24.756;2023-04-01T01:41:49;12.47;;;10.07;;
7179;SDS011;3631;42.152;24.756;2023-04-01T01:44:54;15.60;;;9.47;;
7179;SDS011;3631;42.152;24.756;2023-04-01T01:47:53;11.77;;;9.27;;
7179;SDS011;3631;42.152;24.756;2023-04-01T01:51:27;11.73;;;9.90;;
7179;SDS011;3631;42.152;24.756;2023-04-01T01:54:27;13.57;;;8.70;;
7179;SDS011;3631;42.152;24.756;2023-04-01T01:57:25;9.20;;;7.07;;
7179;SDS011;3631;42.152;24.756;2023-04-01T02:00:20;7.90;;;6.90;;
7179;SDS011;3631;42.152;24.756;2023-04-01T02:03:19;8.27;;;6.80;;
7179;SDS011;3631;42.152;24.756;2023-04-01T02:09:39;6.97;;;6.30;;
7179;SDS011;3631;42.152;24.756;2023-04-01T02:12:36;7.77;;;6.97;;
7179;SDS011;3631;42.152;24.756;2023-04-01T02:15:29;9.67;;;6.00;;
7179;SDS011;3631;42.152;24.756;2023-04-01T02:18:18;9.80;;;7.07;;
7179;SDS011;3631;42.152;24.756;2023-04-01T02:21:26;9.17;;;6.57;;
7179;SDS011;3631;42.152;24.756;2023-04-01T02:24:15;8.97;;;6.73;;
7179;SDS011;3631;42.152;24.756;2023-04-01T02:27:13;9.03;;;6.83;;
7179;SDS011;3631;42.152;24.756;2023-04-01T02:30:12;9.57;;;6.63;;
7179;SDS011;3631;42.152;24.756;2023-04-01T02:33:16;8.40;;;6.63;;
7179;SDS011;3631;42.152;24.756;2023-04-01T02:39:15;10.20;;;7.10;;
7179;SDS011;3631;42.152;24.756;2023-04-01T02:42:06;9.33;;;6.93;;
7179;SDS011;3631;42.152;24.756;2023-04-01T02:48:17;12.23;;;7.43;;
7179;SDS011;3631;42.152;24.756;2023-04-01T02:51:22;8.07;;;6.83;;
7179;SDS011;3631;42.152;24.756;2023-04-01T02:54:43;12.03;;;7.77;;
7179;SDS011;3631;42.152;24.756;2023-04-01T02:57:35;8.53;;;7.57;;
7179;SDS011;3631;42.152;24.756;2023-04-01T03:00:34;9.97;;;8.50;;
7179;SDS011;3631;42.152;24.756;2023-04-01T03:03:22;11.37;;;8.67;;
7179;SDS011;3631;42.152;24.756;2023-04-01T03:06:23;16.57;;;10.07;;
7179;SDS011;3631;42.152;24.756;2023-04-01T03:09:25;25.70;;;19.23;;
7179;SDS011;3631;42.152;24.756;2023-04-01T03:12:25;32.07;;;22.63;;
7179;SDS011;3631;42.152;24.756;2023-04-01T03:18:32;26.30;;;16.87;;
7179;SDS011;3631;42.152;24.756;2023-04-01T03:21:23;20.00;;;15.70;;
7179;SDS011;3631;42.152;24.756;2023-04-01T03:24:15;23.33;;;13.57;;
7179;SDS011;3631;42.152;24.756;2023-04-01T03:27:13;15.17;;;11.93;;
7179;SDS011;3631;42.152;24.756;2023-04-01T03:30:21;19.70;;;12.27;;
7179;SDS011;3631;42.152;24.756;2023-04-01T03:33:08;25.63;;;11.97;;
7179;SDS011;3631;42.152;24.756;2023-04-01T03:35:54;21.83;;;12.27;;
7179;SDS011;3631;42.152;24.756;2023-04-01T03:42:04;15.00;;;11.83;;
7179;SDS011;3631;42.152;24.756;2023-04-01T03:44:57;20.50;;;11.90;;
7179;SDS011;3631;42.152;24.756;2023-04-01T03:47:49;14.97;;;11.53;;
7179;SDS011;3631;42.152;24.756;2023-04-01T03:54:13;17.60;;;12.00;;
7179;SDS011;3631;42.152;24.756;2023-04-01T03:57:19;15.17;;;11.53;;
7179;SDS011;3631;42.152;24.756;2023-04-01T04:00:38;16.47;;;11.27;;
7179;SDS011;3631;42.152;24.756;2023-04-01T04:07:33;18.10;;;12.60;;
7179;SDS011;3631;42.152;24.756;2023-04-01T04:10:32;17.57;;;12.10;;
7179;SDS011;3631;42.152;24.756;2023-04-01T04:13:44;17.83;;;11.50;;
7179;SDS011;3631;42.152;24.756;2023-04-01T04:16:44;27.83;;;13.80;;
7179;SDS011;3631;42.152;24.756;2023-04-01T04:19:44;17.20;;;11.90;;
7179;SDS011;3631;42.152;24.756;2023-04-01T04:25:35;17.13;;;10.43;;
7179;SDS011;3631;42.152;24.756;2023-04-01T04:28:15;15.30;;;10.17;;
7179;SDS011;3631;42.152;24.756;2023-04-01T04:31:08;13.17;;;9.90;;
7179;SDS011;3631;42.152;24.756;2023-04-01T04:33:59;14.70;;;10.13;;
7179;SDS011;3631;42.152;24.756;2023-04-01T04:36:37;15.17;;;10.13;;
7179;SDS011;3631;42.152;24.756;2023-04-01T04:39:21;12.53;;;9.13;;
7179;SDS011;3631;42.152;24.756;2023-04-01T04:42:11;10.57;;;8.83;;
7179;SDS011;3631;42.152;24.756;2023-04-01T04:45:04;13.90;;;8.90;;
7179;SDS011;3631;42.152;24.756;2023-04-01T04:47:49;11.17;;;8.37;;
7179;SDS011;3631;42.152;24.756;2023-04-01T04:50:30;12.13;;;7.93;;
7179;SDS011;3631;42.152;24.756;2023-04-01T04:53:04;9.23;;;8.23;;
7179;SDS011;3631;42.152;24.756;2023-04-01T04:56:01;11.37;;;7.27;;
7179;SDS011;3631;42.152;24.756;2023-04-01T04:58:44;7.57;;;6.77;;
7179;SDS011;3631;42.152;24.756;2023-04-01T05:02:02;12.57;;;8.27;;
7179;SDS011;3631;42.152;24.756;2023-04-01T05:04:56;9.17;;;7.50;;
7179;SDS011;3631;42.152;24.756;2023-04-01T05:07:34;8.50;;;7.27;;
7179;SDS011;3631;42.152;24.756;2023-04-01T05:10:19;9.07;;;7.50;;
7179;SDS011;3631;42.152;24.756;2023-04-01T05:13:09;12.33;;;7.17;;
7179;SDS011;3631;42.152;24.756;2023-04-01T05:15:41;15.20;;;8.43;;
7179;SDS011;3631;42.152;24.756;2023-04-01T05:18:15;13.23;;;9.23;;
7179;SDS011;3631;42.152;24.756;2023-04-01T05:20:49;35.93;;;21.23;;
7179;SDS011;3631;42.152;24.756;2023-04-01T05:23:24;40.33;;;21.90;;
7179;SDS011;3631;42.152;24.756;2023-04-01T05:25:56;39.80;;;14.37;;
7179;SDS011;3631;42.152;24.756;2023-04-01T05:28:28;34.30;;;15.67;;
7179;SDS011;3631;42.152;24.756;2023-04-01T05:31:04;20.97;;;14.20;;
7179;SDS011;3631;42.152;24.756;2023-04-01T05:33:41;35.67;;;14.97;;
7179;SDS011;3631;42.152;24.756;2023-04-01T05:36:24;25.97;;;15.30;;
7179;SDS011;3631;42.152;24.756;2023-04-01T05:39:09;26.53;;;13.77;;
7179;SDS011;3631;42.152;24.756;2023-04-01T05:41:43;23.83;;;13.50;;
7179;SDS011;3631;42.152;24.756;2023-04-01T05:44:29;20.83;;;12.63;;
7179;SDS011;3631;42.152;24.756;2023-04-01T05:47:10;22.77;;;13.73;;
7179;SDS011;3631;42.152;24.756;2023-04-01T05:49:52;27.03;;;15.30;;
7179;SDS011;3631;42.152;24.756;2023-04-01T05:52:32;29.43;;;18.87;;
7179;SDS011;3631;42.152;24.756;2023-04-01T05:55:15;31.33;;;20.43;;
7179;SDS011;3631;42.152;24.756;2023-04-01T05:57:56;32.83;;;22.30;;
7179;SDS011;3631;42.152;24.756;2023-04-01T06:00:35;34.30;;;21.60;;
7179;SDS011;3631;42.152;24.756;2023-04-01T06:03:14;35.23;;;21.80;;
7179;SDS011;3631;42.152;24.756;2023-04-01T06:06:04;33.13;;;20.43;;
7179;SDS011;3631;42.152;24.756;2023-04-01T06:08:46;37.43;;;20.33;;
7179;SDS011;3631;42.152;24.756;2023-04-01T06:11:26;26.23;;;16.17;;
7179;SDS011;3631;42.152;24.756;2023-04-01T06:14:19;26.83;;;16.40;;
7179;SDS011;3631;42.152;24.756;2023-04-01T06:17:25;28.33;;;15.80;;
7179;SDS011;3631;42.152;24.756;2023-04-01T06:20:33;20.03;;;10.83;;
7179;SDS011;3631;42.152;24.756;2023-04-01T06:23:51;14.87;;;9.73;;
7179;SDS011;3631;42.152;24.756;2023-04-01T06:26:56;15.23;;;10.13;;
7179;SDS011;3631;42.152;24.756;2023-04-01T06:30:04;10.63;;;8.97;;
7179;SDS011;3631;42.152;24.756;2023-04-01T06:33:11;16.20;;;9.13;;
7179;SDS011;3631;42.152;24.756;2023-04-01T06:36:28;14.60;;;8.70;;
7179;SDS011;3631;42.152;24.756;2023-04-01T06:39:20;15.37;;;10.73;;
7179;SDS011;3631;42.152;24.756;2023-04-01T06:45:04;13.17;;;8.47;;
7179;SDS011;3631;42.152;24.756;2023-04-01T06:48:03;8.90;;;7.80;;
7179;SDS011;3631;42.152;24.756;2023-04-01T06:51:02;10.97;;;7.20;;
7179;SDS011;3631;42.152;24.756;2023-04-01T06:53:47;13.40;;;8.77;;
7179;SDS011;3631;42.152;24.756;2023-04-01T06:56:32;13.63;;;8.90;;
7179;SDS011;3631;42.152;24.756;2023-04-01T06:59:14;12.67;;;7.83;;
7179;SDS011;3631;42.152;24.756;2023-04-01T07:02:05;13.40;;;7.50;;
7179;SDS011;3631;42.152;24.756;2023-04-01T07:04:58;11.17;;;7.90;;
7179;SDS011;3631;42.152;24.756;2023-04-01T07:07:40;13.03;;;8.03;;
7179;SDS011;3631;42.152;24.756;2023-04-01T07:10:16;29.70;;;16.30;;
7179;SDS011;3631;42.152;24.756;2023-04-01T07:13:00;19.90;;;12.07;;
7179;SDS011;3631;42.152;24.756;2023-04-01T07:15:39;18.83;;;9.50;;
7179;SDS011;3631;42.152;24.756;2023-04-01T07:18:19;15.30;;;8.63;;
7179;SDS011;3631;42.152;24.756;2023-04-01T07:21:04;9.03;;;8.07;;
7179;SDS011;3631;42.152;24.756;2023-04-01T07:23:58;7.87;;;6.97;;
7179;SDS011;3631;42.152;24.756;2023-04-01T07:27:08;8.33;;;7.23;;
7179;SDS011;3631;42.152;24.756;2023-04-01T07:30:17;11.43;;;6.97;;
7179;SDS011;3631;42.152;24.756;2023-04-01T07:33:42;8.63;;;7.40;;
7179;SDS011;3631;42.152;24.756;2023-04-01T07:39:37;16.37;;;7.20;;
7179;SDS011;3631;42.152;24.756;2023-04-01T07:42:36;8.20;;;6.17;;
7179;SDS011;3631;42.152;24.756;2023-04-01T07:45:32;7.77;;;6.97;;
7179;SDS011;3631;42.152;24.756;2023-04-01T07:48:18;10.43;;;6.57;;
7179;SDS011;3631;42.152;24.756;2023-04-01T07:51:03;8.47;;;6.60;;
7179;SDS011;3631;42.152;24.756;2023-04-01T07:54:04;10.20;;;6.87;;
7179;SDS011;3631;42.152;24.756;2023-04-01T07:56:51;17.57;;;7.70;;
7179;SDS011;3631;42.152;24.756;2023-04-01T07:59:59;14.20;;;7.33;;
7179;SDS011;3631;42.152;24.756;2023-04-01T08:03:02;11.43;;;7.87;;
7179;SDS011;3631;42.152;24.756;2023-04-01T08:06:03;12.23;;;7.33;;
7179;SDS011;3631;42.152;24.756;2023-04-01T08:12:24;8.97;;;7.47;;
7179;SDS011;3631;42.152;24.756;2023-04-01T08:15:17;9.93;;;8.47;;
7179;SDS011;3631;42.152;24.756;2023-04-01T08:18:27;9.90;;;8.03;;
7179;SDS011;3631;42.152;24.756;2023-04-01T08:21:11;13.43;;;7.40;;
7179;SDS011;3631;42.152;24.756;2023-04-01T08:24:06;15.77;;;7.30;;
7179;SDS011;3631;42.152;24.756;2023-04-01T08:27:04;10.80;;;7.53;;
7179;SDS011;3631;42.152;24.756;2023-04-01T08:29:58;11.50;;;8.03;;
7179;SDS011;3631;42.152;24.756;2023-04-01T08:32:53;9.70;;;8.70;;
7179;SDS011;3631;42.152;24.756;2023-04-01T08:35:50;13.80;;;8.07;;
7179;SDS011;3631;42.152;24.756;2023-04-01T08:38:43;14.90;;;7.93;;
7179;SDS011;3631;42.152;24.756;2023-04-01T08:41:53;9.57;;;7.53;;
7179;SDS011;3631;42.152;24.756;2023-04-01T08:55:14;14.00;;;7.40;;
7179;SDS011;3631;42.152;24.756;2023-04-01T08:58:30;11.30;;;7.77;;
7179;SDS011;3631;42.152;24.756;2023-04-01T09:02:05;11.23;;;7.60;;
7179;SDS011;3631;42.152;24.756;2023-04-01T09:05:34;13.03;;;8.43;;
7179;SDS011;3631;42.152;24.756;2023-04-01T09:08:51;12.77;;;7.90;;
7179;SDS011;3631;42.152;24.756;2023-04-01T09:15:40;12.60;;;7.10;;
7179;SDS011;3631;42.152;24.756;2023-04-01T09:18:59;9.83;;;7.27;;
7179;SDS011;3631;42.152;24.756;2023-04-01T09:22:07;13.13;;;7.90;;
7179;SDS011;3631;42.152;24.756;2023-04-01T09:28:41;11.10;;;7.70;;
7179;SDS011;3631;42.152;24.756;2023-04-01T09:32:00;13.20;;;8.30;;
7179;SDS011;3631;42.152;24.756;2023-04-01T09:35:27;10.70;;;8.23;;
7179;SDS011;3631;42.152;24.756;2023-04-01T09:38:35;17.53;;;8.93;;
7179;SDS011;3631;42.152;24.756;2023-04-01T09:45:20;13.40;;;8.60;;
7179;SDS011;3631;42.152;24.756;2023-04-01T09:51:49;13.70;;;10.07;;
7179;SDS011;3631;42.152;24.756;2023-04-01T09:55:12;11.47;;;8.67;;
7179;SDS011;3631;42.152;24.756;2023-04-01T10:01:51;12.70;;;9.30;;
7179;SDS011;3631;42.152;24.756;2023-04-01T10:05:04;12.30;;;9.87;;
7179;SDS011;3631;42.152;24.756;2023-04-01T10:11:25;14.80;;;9.97;;
7179;SDS011;3631;42.152;24.756;2023-04-01T10:17:55;13.53;;;9.23;;
7179;SDS011;3631;42.152;24.756;2023-04-01T10:24:09;16.37;;;9.57;;
7179;SDS011;3631;42.152;24.756;2023-04-01T10:27:06;15.90;;;10.03;;
7179;SDS011;3631;42.152;24.756;2023-04-01T10:30:06;17.47;;;11.07;;
7179;SDS011;3631;42.152;24.756;2023-04-01T10:36:20;16.23;;;9.17;;
7179;SDS011;3631;42.152;24.756;2023-04-01T10:39:33;17.47;;;9.80;;
7179;SDS011;3631;42.152;24.756;2023-04-01T10:42:39;16.20;;;9.13;;
7179;SDS011;3631;42.152;24.756;2023-04-01T10:51:59;12.37;;;9.43;;
7179;SDS011;3631;42.152;24.756;2023-04-01T10:54:51;15.10;;;9.67;;
7179;SDS011;3631;42.152;24.756;2023-04-01T11:01:03;15.30;;;10.50;;
7179;SDS011;3631;42.152;24.756;2023-04-01T11:07:29;16.03;;;10.50;;
7179;SDS011;3631;42.152;24.756;2023-04-01T11:10:57;11.30;;;7.83;;
7179;SDS011;3631;42.152;24.756;2023-04-01T11:14:05;9.80;;;8.13;;
7179;SDS011;3631;42.152;24.756;2023-04-01T11:17:17;13.85;;;8.75;;
7179;SDS011;3631;42.152;24.756;2023-04-01T11:20:31;11.55;;;8.15;;
7179;SDS011;3631;42.152;24.756;2023-04-01T11:26:42;7.55;;;6.82;;
7179;SDS011;3631;42.152;24.756;2023-04-01T11:29:51;12.63;;;8.05;;
7179;SDS011;3631;42.152;24.756;2023-04-01T11:32:53;11.15;;;8.30;;
7179;SDS011;3631;42.152;24.756;2023-04-01T11:38:42;12.95;;;8.57;;
7179;SDS011;3631;42.152;24.756;2023-04-01T11:41:32;18.85;;;9.20;;
7179;SDS011;3631;42.152;24.756;2023-04-01T11:44:22;9.35;;;8.30;;
7179;SDS011;3631;42.152;24.756;2023-04-01T11:50:59;10.93;;;8.02;;
7179;SDS011;3631;42.152;24.756;2023-04-01T11:54:12;12.65;;;8.07;;
7179;SDS011;3631;42.152;24.756;2023-04-01T11:57:31;9.23;;;6.80;;
7179;SDS011;3631;42.152;24.756;2023-04-01T12:07:01;12.15;;;6.78;;
7179;SDS011;3631;42.152;24.756;2023-04-01T12:09:53;7.45;;;6.70;;
7179;SDS011;3631;42.152;24.756;2023-04-01T12:12:57;7.40;;;6.60;;
7179;SDS011;3631;42.152;24.756;2023-04-01T12:19:11;12.20;;;7.57;;
7179;SDS011;3631;42.152;24.756;2023-04-01T12:22:08;10.55;;;6.80;;
7179;SDS011;3631;42.152;24.756;2023-04-01T12:24:59;9.32;;;6.90;;
7179;SDS011;3631;42.152;24.756;2023-04-01T12:27:54;11.48;;;7.03;;
7179;SDS011;3631;42.152;24.756;2023-04-01T12:30:39;14.00;;;7.28;;
7179;SDS011;3631;42.152;24.756;2023-04-01T12:33:41;8.90;;;7.07;;
7179;SDS011;3631;42.152;24.756;2023-04-01T12:39:49;9.98;;;7.63;;
7179;SDS011;3631;42.152;24.756;2023-04-01T12:43:10;13.30;;;7.85;;
7179;SDS011;3631;42.152;24.756;2023-04-01T12:46:24;8.52;;;7.05;;
7179;SDS011;3631;42.152;24.756;2023-04-01T12:55:59;7.75;;;6.80;;
7179;SDS011;3631;42.152;24.756;2023-04-01T12:59:04;9.23;;;6.63;;
7179;SDS011;3631;42.152;24.756;2023-04-01T13:02:32;9.50;;;6.53;;
7179;SDS011;3631;42.152;24.756;2023-04-01T13:06:04;13.93;;;6.43;;
7179;SDS011;3631;42.152;24.756;2023-04-01T13:09:11;11.23;;;7.43;;
7179;SDS011;3631;42.152;24.756;2023-04-01T13:12:14;7.95;;;6.45;;
7179;SDS011;3631;42.152;24.756;2023-04-01T13:15:23;12.93;;;7.25;;
7179;SDS011;3631;42.152;24.756;2023-04-01T13:18:09;9.05;;;6.70;;
7179;SDS011;3631;42.152;24.756;2023-04-01T13:20:54;8.25;;;7.20;;
7179;SDS011;3631;42.152;24.756;2023-04-01T13:23:39;10.43;;;6.95;;
7179;SDS011;3631;42.152;24.756;2023-04-01T13:26:24;11.48;;;7.78;;
7179;SDS011;3631;42.152;24.756;2023-04-01T13:29:04;10.40;;;8.18;;
7179;SDS011;3631;42.152;24.756;2023-04-01T13:32:19;20.00;;;9.48;;
7179;SDS011;3631;42.152;24.756;2023-04-01T13:35:08;26.98;;;8.48;;
7179;SDS011;3631;42.152;24.756;2023-04-01T13:40:58;20.73;;;10.15;;
7179;SDS011;3631;42.152;24.756;2023-04-01T13:43:45;26.70;;;10.32;;
7179;SDS011;3631;42.152;24.756;2023-04-01T13:46:33;19.55;;;11.15;;
7179;SDS011;3631;42.152;24.756;2023-04-01T13:52:44;14.60;;;11.00;;
7179;SDS011;3631;42.152;24.756;2023-04-01T13:55:49;21.53;;;10.23;;
7179;SDS011;3631;42.152;24.756;2023-04-01T13:58:57;15.83;;;10.30;;
7179;SDS011;3631;42.152;24.756;2023-04-01T14:01:56;18.03;;;9.20;;
7179;SDS011;3631;42.152;24.756;2023-04-01T14:04:53;21.43;;;9.03;;
7179;SDS011;3631;42.152;24.756;2023-04-01T14:07:49;8.70;;;4.40;;
7179;SDS011;3631;42.152;24.756;2023-04-01T14:10:39;12.13;;;6.53;;
7179;SDS011;3631;42.152;24.756;2023-04-01T14:13:46;10.93;;;7.60;;
7179;SDS011;3631;42.152;24.756;2023-04-01T14:17:06;18.23;;;13.53;;
7179;SDS011;3631;42.152;24.756;2023-04-01T14:23:18;6.90;;;5.17;;
7179;SDS011;3631;42.152;24.756;2023-04-01T14:29:52;15.83;;;11.97;;
7179;SDS011;3631;42.152;24.756;2023-04-01T14:49:13;14.07;;;9.87;;
7179;SDS011;3631;42.152;24.756;2023-04-01T14:52:32;11.00;;;6.73;;
7179;SDS011;3631;42.152;24.756;2023-04-01T14:55:44;6.90;;;5.97;;
7179;SDS011;3631;42.152;24.756;2023-04-01T14:58:41;6.60;;;5.67;;
7179;SDS011;3631;42.152;24.756;2023-04-01T15:01:40;13.03;;;10.80;;
7179;SDS011;3631;42.152;24.756;2023-04-01T15:10:34;8.33;;;5.13;;
7179;SDS011;3631;42.152;24.756;2023-04-01T15:17:12;8.30;;;6.53;;
7179;SDS011;3631;42.152;24.756;2023-04-01T15:23:24;9.00;;;6.60;;
7179;SDS011;3631;42.152;24.756;2023-04-01T15:26:20;7.27;;;5.37;;
7179;SDS011;3631;42.152;24.756;2023-04-01T15:29:28;6.67;;;5.93;;
7179;SDS011;3631;42.152;24.756;2023-04-01T15:32:21;8.60;;;5.60;;
7179;SDS011;3631;42.152;24.756;2023-04-01T15:35:14;6.13;;;4.97;;
7179;SDS011;3631;42.152;24.756;2023-04-01T15:38:12;6.60;;;5.40;;
7179;SDS011;3631;42.152;24.756;2023-04-01T15:41:01;9.53;;;6.20;;
7179;SDS011;3631;42.152;24.756;2023-04-01T15:43:41;5.70;;;5.20;;
7179;SDS011;3631;42.152;24.756;2023-04-01T15:49:20;5.80;;;5.30;;
7179;SDS011;3631;42.152;24.756;2023-04-01T15:52:17;7.93;;;5.20;;
7179;SDS011;3631;42.152;24.756;2023-04-01T15:55:26;6.63;;;5.07;;
7179;SDS011;3631;42.152;24.756;2023-04-01T16:01:24;14.33;;;7.33;;
7179;SDS011;3631;42.152;24.756;2023-04-01T16:04:21;11.60;;;7.73;;
7179;SDS011;3631;42.152;24.756;2023-04-01T16:07:17;11.80;;;9.43;;
7179;SDS011;3631;42.152;24.756;2023-04-01T16:10:44;22.03;;;14.47;;
7179;SDS011;3631;42.152;24.756;2023-04-01T16:13:48;17.90;;;12.83;;
7179;SDS011;3631;42.152;24.756;2023-04-01T16:16:31;8.50;;;7.73;;
7179;SDS011;3631;42.152;24.756;2023-04-01T16:19:18;9.87;;;7.20;;
7179;SDS011;3631;42.152;24.756;2023-04-01T16:22:16;8.60;;;5.43;;
7179;SDS011;3631;42.152;24.756;2023-04-01T16:25:19;6.27;;;5.57;;
7179;SDS011;3631;42.152;24.756;2023-04-01T16:28:14;7.17;;;6.47;;
7179;SDS011;3631;42.152;24.756;2023-04-01T16:31:10;7.63;;;6.57;;
7179;SDS011;3631;42.152;24.756;2023-04-01T16:34:04;9.47;;;8.00;;
7179;SDS011;3631;42.152;24.756;2023-04-01T16:36:42;6.43;;;5.83;;
7179;SDS011;3631;42.152;24.756;2023-04-01T16:39:28;7.00;;;6.07;;
7179;SDS011;3631;42.152;24.756;2023-04-01T16:42:13;9.40;;;6.97;;
7179;SDS011;3631;42.152;24.756;2023-04-01T16:45:01;8.53;;;6.90;;
7179;SDS011;3631;42.152;24.756;2023-04-01T16:47:50;8.20;;;6.37;;
7179;SDS011;3631;42.152;24.756;2023-04-01T16:50:39;11.10;;;6.80;;
7179;SDS011;3631;42.152;24.756;2023-04-01T16:53:35;8.97;;;5.83;;
7179;SDS011;3631;42.152;24.756;2023-04-01T16:56:16;18.00;;;10.27;;
7179;SDS011;3631;42.152;24.756;2023-04-01T16:59:04;12.63;;;7.83;;
7179;SDS011;3631;42.152;24.756;2023-04-01T17:01:58;11.83;;;9.07;;
7179;SDS011;3631;42.152;24.756;2023-04-01T17:04:57;18.77;;;12.53;;
7179;SDS011;3631;42.152;24.756;2023-04-01T17:07:49;8.97;;;8.07;;
7179;SDS011;3631;42.152;24.756;2023-04-01T17:10:40;6.63;;;5.90;;
7179;SDS011;3631;42.152;24.756;2023-04-01T17:13:39;8.47;;;7.60;;
7179;SDS011;3631;42.152;24.756;2023-04-01T17:16:44;11.40;;;8.03;;
7179;SDS011;3631;42.152;24.756;2023-04-01T17:19:38;12.03;;;9.83;;
7179;SDS011;3631;42.152;24.756;2023-04-01T17:22:31;24.27;;;15.60;;
7179;SDS011;3631;42.152;24.756;2023-04-01T17:25:33;17.00;;;12.10;;
7179;SDS011;3631;42.152;24.756;2023-04-01T17:28:44;10.57;;;9.03;;
7179;SDS011;3631;42.152;24.756;2023-04-01T17:31:56;14.37;;;11.17;;
7179;SDS011;3631;42.152;24.756;2023-04-01T17:35:05;14.00;;;10.20;;
7179;SDS011;3631;42.152;24.756;2023-04-01T17:38:05;13.37;;;10.70;;
7179;SDS011;3631;42.152;24.756;2023-04-01T17:41:01;14.00;;;12.00;;
7179;SDS011;3631;42.152;24.756;2023-04-01T17:44:05;15.00;;;12.13;;
7179;SDS011;3631;42.152;24.756;2023-04-01T17:50:47;17.70;;;9.80;;
7179;SDS011;3631;42.152;24.756;2023-04-01T17:53:56;8.07;;;7.10;;
7179;SDS011;3631;42.152;24.756;2023-04-01T17:57:01;4.27;;;3.83;;
7179;SDS011;3631;42.152;24.756;2023-04-01T18:00:15;3.20;;;2.93;;
7179;SDS011;3631;42.152;24.756;2023-04-01T18:03:00;1.77;;;1.67;;
7179;SDS011;3631;42.152;24.756;2023-04-01T18:05:51;3.00;;;1.93;;
7179;SDS011;3631;42.152;24.756;2023-04-01T18:08:40;1.43;;;1.40;;
7179;SDS011;3631;42.152;24.756;2023-04-01T18:11:19;2.40;;;1.30;;
7179;SDS011;3631;42.152;24.756;2023-04-01T18:14:11;1.43;;;1.33;;
7179;SDS011;3631;42.152;24.756;2023-04-01T18:17:15;1.70;;;1.60;;
7179;SDS011;3631;42.152;24.756;2023-04-01T18:20:21;2.00;;;1.90;;
7179;SDS011;3631;42.152;24.756;2023-04-01T18:23:11;1.50;;;1.40;;
7179;SDS011;3631;42.152;24.756;2023-04-01T18:26:05;1.47;;;1.37;;
7179;SDS011;3631;42.152;24.756;2023-04-01T18:28:43;1.40;;;1.40;;
7179;SDS011;3631;42.152;24.756;2023-04-01T18:31:32;1.60;;;1.50;;
7179;SDS011;3631;42.152;24.756;2023-04-01T18:34:12;1.57;;;1.47;;
7179;SDS011;3631;42.152;24.756;2023-04-01T18:36:47;2.07;;;1.70;;
7179;SDS011;3631;42.152;24.756;2023-04-01T18:39:30;1.77;;;1.67;;
7179;SDS011;3631;42.152;24.756;2023-04-01T18:42:14;1.80;;;1.70;;
7179;SDS011;3631;42.152;24.756;2023-04-01T18:45:01;2.97;;;2.07;;
7179;SDS011;3631;42.152;24.756;2023-04-01T18:48:02;3.17;;;2.10;;
7179;SDS011;3631;42.152;24.756;2023-04-01T18:50:47;3.23;;;2.97;;
7179;SDS011;3631;42.152;24.756;2023-04-01T18:53:38;3.10;;;2.90;;
7179;SDS011;3631;42.152;24.756;2023-04-01T18:56:22;4.00;;;3.40;;
7179;SDS011;3631;42.152;24.756;2023-04-01T18:59:05;9.13;;;4.00;;
7179;SDS011;3631;42.152;24.756;2023-04-01T19:02:24;3.90;;;2.80;;
7179;SDS011;3631;42.152;24.756;2023-04-01T19:05:33;2.87;;;2.53;;
7179;SDS011;3631;42.152;24.756;2023-04-01T19:08:26;3.17;;;2.47;;
7179;SDS011;3631;42.152;24.756;2023-04-01T19:11:04;2.10;;;2.00;;
7179;SDS011;3631;42.152;24.756;2023-04-01T19:13:56;2.07;;;1.97;;
7179;SDS011;3631;42.152;24.756;2023-04-01T19:16:44;2.30;;;2.20;;
7179;SDS011;3631;42.152;24.756;2023-04-01T19:19:32;3.37;;;2.73;;
7179;SDS011;3631;42.152;24.756;2023-04-01T19:22:21;4.07;;;3.47;;
7179;SDS011;3631;42.152;24.756;2023-04-01T19:28:19;3.27;;;2.97;;
7179;SDS011;3631;42.152;24.756;2023-04-01T19:31:10;3.40;;;3.20;;
7179;SDS011;3631;42.152;24.756;2023-04-01T19:33:57;4.10;;;3.80;;
7179;SDS011;3631;42.152;24.756;2023-04-01T19:36:42;3.37;;;3.10;;
7179;SDS011;3631;42.152;24.756;2023-04-01T19:39:25;3.10;;;2.90;;
7179;SDS011;3631;42.152;24.756;2023-04-01T19:42:10;3.43;;;3.13;;
7179;SDS011;3631;42.152;24.756;2023-04-01T19:44:55;3.67;;;3.27;;
7179;SDS011;3631;42.152;24.756;2023-04-01T19:47:48;3.23;;;3.00;;
7179;SDS011;3631;42.152;24.756;2023-04-01T19:50:34;4.20;;;3.13;;
7179;SDS011;3631;42.152;24.756;2023-04-01T19:53:16;2.70;;;2.50;;
7179;SDS011;3631;42.152;24.756;2023-04-01T19:55:57;3.77;;;3.47;;
7179;SDS011;3631;42.152;24.756;2023-04-01T19:58:33;2.77;;;2.57;;
7179;SDS011;3631;42.152;24.756;2023-04-01T20:01:11;3.27;;;3.00;;
7179;SDS011;3631;42.152;24.756;2023-04-01T20:03:54;3.00;;;2.80;;
7179;SDS011;3631;42.152;24.756;2023-04-01T20:06:32;2.80;;;2.60;;
7179;SDS011;3631;42.152;24.756;2023-04-01T20:09:29;3.87;;;3.57;;
7179;SDS011;3631;42.152;24.756;2023-04-01T20:12:16;3.07;;;2.77;;
7179;SDS011;3631;42.152;24.756;2023-04-01T20:15:02;3.70;;;3.30;;
7179;SDS011;3631;42.152;24.756;2023-04-01T20:17:54;3.43;;;3.13;;
7179;SDS011;3631;42.152;24.756;2023-04-01T20:20:34;3.00;;;2.70;;
7179;SDS011;3631;42.152;24.756;2023-04-01T20:23:21;4.47;;;3.80;;
7179;SDS011;3631;42.152;24.756;2023-04-01T20:26:06;6.33;;;3.93;;
7179;SDS011;3631;42.152;24.756;2023-04-01T20:28:43;6.07;;;4.27;;
7179;SDS011;3631;42.152;24.756;2023-04-01T20:31:36;6.63;;;5.10;;
7179;SDS011;3631;42.152;24.756;2023-04-01T20:38:05;3.63;;;3.37;;
7179;SDS011;3631;42.152;24.756;2023-04-01T20:41:15;4.23;;;3.83;;
7179;SDS011;3631;42.152;24.756;2023-04-01T20:44:12;4.23;;;3.30;;
7179;SDS011;3631;42.152;24.756;2023-04-01T20:47:15;3.17;;;2.43;;
7179;SDS011;3631;42.152;24.756;2023-04-01T20:50:14;3.17;;;2.97;;